Time,TemperatureF,DewpointF,PressureIn,WindDirection,WindDirectionDegrees,WindSpeedMPH,WindSpeedGustMPH,Humidity,HourlyPrecipIn,Conditions,Clouds,dailyrainin,SoftwareType,DateUTC
2013-04-12 00:00:00,70.4,64.3,29.80,NNW,328,12.1,15.5,81,0.00,,BKN200,0.00,VWS V14.01,2013-04-12 04:00:00,
2013-04-12 00:02:00,70.4,64.3,29.80,WNW,287,0.0,9.9,81,0.00,,BKN200,0.00,VWS V14.01,2013-04-12 04:02:00,
2013-04-12 00:03:00,70.4,64.3,29.80,NNE,22,0.0,9.9,81,0.00,,BKN200,0.00,VWS V14.01,2013-04-12 04:03:00,
2013-04-12 00:08:00,70.2,64.1,29.80,West,277,0.0,0.0,81,0.00,,BKN200,0.00,VWS V14.01,2013-04-12 04:08:00,
2013-04-12 00:13:00,70.2,64.1,29.80,NW,318,0.0,19.7,81,0.00,,BKN200,0.00,VWS V14.01,2013-04-12 04:13:00,
2013-04-12 00:18:00,70.2,64.5,29.80,West,278,0.0,19.7,82,0.00,,BKN200,0.00,VWS V14.01,2013-04-12 04:18:00,
2013-04-12 00:23:00,70.1,64.0,29.80,NNW,333,0.0,12.7,81,0.00,,BKN200,0.00,VWS V14.01,2013-04-12 04:23:00,
2013-04-12 00:28:00,70.1,64.0,29.80,North,8,0.0,0.0,81,0.00,,BKN200,0.00,VWS V14.01,2013-04-12 04:28:00,
2013-04-12 00:33:00,70.1,64.0,29.80,NNW,341,8.1,8.5,81,0.00,,BKN200,0.00,VWS V14.01,2013-04-12 04:33:00,
2013-04-12 00:38:00,69.9,63.8,29.80,NNE,16,0.0,0.0,81,0.00,,BKN200,0.00,VWS V14.01,2013-04-12 04:38:00,
2013-04-12 00:43:00,69.9,63.8,29.80,West,274,8.1,11.3,81,0.00,,BKN200,0.00,VWS V14.01,2013-04-12 04:43:00,
2013-04-12 00:48:00,69.9,64.1,29.80,ESE,109,0.0,7.0,82,0.00,,BKN200,0.00,VWS V14.01,2013-04-12 04:48:00,
2013-04-12 00:53:00,69.9,64.1,29.80,NNW,337,0.0,0.0,82,0.00,,BKN200,0.00,VWS V14.01,2013-04-12 04:53:00,
2013-04-12 00:58:00,69.9,63.8,29.80,SSW,203,0.0,9.9,81,0.00,,BKN200,0.00,VWS V14.01,2013-04-12 04:58:00,
2013-04-12 01:03:00,69.9,64.1,29.80,NW,319,0.0,15.5,82,0.00,,BKN200,0.00,VWS V14.01,2013-04-12 05:03:00,
2013-04-12 01:08:00,69.9,64.1,29.80,NW,324,0.0,9.9,82,0.00,,BKN200,0.00,VWS V14.01,2013-04-12 05:08:00,
2013-04-12 01:13:00,69.9,64.1,29.80,WSW,254,0.0,0.0,82,0.00,,BKN200,0.00,VWS V14.01,2013-04-12 05:13:00,
2013-04-12 01:18:00,69.9,64.1,29.80,NNE,14,0.0,11.3,82,0.00,,BKN200,0.00,VWS V14.01,2013-04-12 05:18:00,
2013-04-12 01:23:00,69.7,64.0,29.80,NE,49,0.0,0.0,82,0.00,,BKN200,0.00,VWS V14.01,2013-04-12 05:23:00,
2013-04-12 01:29:00,69.9,64.1,29.80,North,11,0.0,0.0,82,0.00,,BKN200,0.00,VWS V14.01,2013-04-12 05:29:00,
2013-04-12 01:34:00,69.9,64.1,29.80,WNW,286,0.0,9.9,82,0.00,,BKN200,0.00,VWS V14.01,2013-04-12 05:34:00,
2013-04-12 01:39:00,69.7,64.0,29.80,NNE,18,0.0,8.5,82,0.00,,BKN200,0.00,VWS V14.01,2013-04-12 05:39:00,
2013-04-12 01:44:00,69.7,64.0,29.80,NNW,342,0.0,11.3,82,0.00,,BKN200,0.00,VWS V14.01,2013-04-12 05:44:00,
2013-04-12 01:49:00,69.7,64.0,29.80,SSE,163,8.1,12.7,82,0.00,,BKN200,0.00,VWS V14.01,2013-04-12 05:49:00,
2013-04-12 01:54:00,69.7,64.0,29.77,SW,232,0.0,11.3,82,0.00,,BKN200,0.00,VWS V14.01,2013-04-12 05:54:00,
2013-04-12 01:59:00,69.7,64.0,29.77,NNE,23,0.0,11.3,82,0.00,,BKN200,0.00,VWS V14.01,2013-04-12 05:59:00,
2013-04-12 02:04:00,69.7,64.0,29.77,SE,132,0.0,9.9,82,0.00,,BKN200,0.00,VWS V14.01,2013-04-12 06:04:00,
2013-04-12 02:09:00,69.7,64.0,29.77,SW,231,0.0,9.9,82,0.00,,BKN200,0.00,VWS V14.01,2013-04-12 06:09:00,
2013-04-12 02:15:00,69.7,64.0,29.77,NE,38,8.1,11.3,82,0.00,,BKN200,0.00,VWS V14.01,2013-04-12 06:15:00,
2013-04-12 02:20:00,69.7,64.0,29.77,ENE,68,8.1,9.9,82,0.00,,BKN200,0.00,VWS V14.01,2013-04-12 06:20:00,
2013-04-12 02:25:00,69.7,64.0,29.77,WNW,299,17.4,18.3,82,0.00,,BKN200,0.00,VWS V14.01,2013-04-12 06:25:00,
2013-04-12 02:30:00,69.7,64.0,29.77,NNE,25,0.0,11.3,82,0.00,,BKN200,0.00,VWS V14.01,2013-04-12 06:30:00,
2013-04-12 02:35:00,69.7,63.6,29.77,West,270,0.0,9.9,81,0.00,,BKN200,0.00,VWS V14.01,2013-04-12 06:35:00,
2013-04-12 02:40:00,69.7,63.6,29.77,WNW,296,0.0,12.7,81,0.00,,BKN200,0.00,VWS V14.01,2013-04-12 06:40:00,
2013-04-12 02:45:00,69.7,63.6,29.77,North,10,0.0,12.7,81,0.00,,BKN200,0.00,VWS V14.01,2013-04-12 06:45:00,
2013-04-12 02:50:00,69.7,63.6,29.77,SSW,192,6.7,16.9,81,0.00,,BKN200,0.00,VWS V14.01,2013-04-12 06:50:00,
2013-04-12 02:55:00,69.7,63.3,29.74,North,0,6.7,8.5,80,0.00,,BKN200,0.00,VWS V14.01,2013-04-12 06:55:00,
2013-04-12 03:00:00,69.7,63.3,29.74,East,93,10.7,11.3,80,0.00,,BKN200,0.00,VWS V14.01,2013-04-12 07:00:00,
2013-04-12 03:05:00,69.7,63.3,29.74,North,353,0.0,16.9,80,0.00,,BKN200,0.00,VWS V14.01,2013-04-12 07:05:00,
2013-04-12 03:10:00,69.7,63.3,29.74,SE,131,0.0,11.3,80,0.00,,BKN200,0.00,VWS V14.01,2013-04-12 07:10:00,
2013-04-12 03:15:00,69.7,63.3,29.74,SSW,209,9.4,9.9,80,0.00,,BKN200,0.00,VWS V14.01,2013-04-12 07:15:00,
2013-04-12 03:20:00,69.7,63.3,29.74,NNW,348,6.7,7.0,80,0.00,,BKN200,0.00,VWS V14.01,2013-04-12 07:20:00,
2013-04-12 03:25:00,69.7,63.3,29.74,East,85,0.0,0.0,80,0.00,,BKN200,0.00,VWS V14.01,2013-04-12 07:25:00,
2013-04-12 03:31:00,69.7,63.3,29.74,NNE,28,0.0,0.0,80,0.00,,BKN200,0.00,VWS V14.01,2013-04-12 07:31:00,
2013-04-12 03:36:00,69.7,62.9,29.74,South,181,6.7,7.0,79,0.00,,BKN200,0.00,VWS V14.01,2013-04-12 07:36:00,
2013-04-12 03:41:00,69.7,62.9,29.74,SSW,196,8.1,9.9,79,0.00,,BKN200,0.00,VWS V14.01,2013-04-12 07:41:00,
2013-04-12 03:46:00,69.7,62.9,29.74,South,181,0.0,0.0,79,0.00,,BKN200,0.00,VWS V14.01,2013-04-12 07:46:00,
2013-04-12 03:51:00,69.5,62.7,29.74,SW,233,0.0,9.9,79,0.00,,BKN200,0.00,VWS V14.01,2013-04-12 07:51:00,
2013-04-12 03:56:00,69.7,62.9,29.74,SSE,157,8.1,9.9,79,0.00,,BKN200,0.00,VWS V14.01,2013-04-12 07:56:00,
2013-04-12 04:01:00,69.7,62.9,29.74,NE,37,8.1,11.3,79,0.00,,BKN200,0.00,VWS V14.01,2013-04-12 08:01:00,
2013-04-12 04:06:00,69.7,62.9,29.74,NNW,343,0.0,0.0,79,0.00,,BKN200,0.00,VWS V14.01,2013-04-12 08:06:00,
2013-04-12 04:11:00,69.7,62.9,29.71,NNE,18,0.0,0.0,79,0.00,,BKN200,0.00,VWS V14.01,2013-04-12 08:11:00,
2013-04-12 04:16:00,69.5,62.7,29.71,South,183,9.4,11.3,79,0.00,,BKN200,0.00,VWS V14.01,2013-04-12 08:16:00,
2013-04-12 04:22:00,69.5,62.7,29.71,NE,47,0.0,7.0,79,0.00,,BKN200,0.00,VWS V14.01,2013-04-12 08:22:00,
2013-04-12 04:27:00,69.5,62.7,29.71,NE,52,9.4,15.5,79,0.00,,BKN200,0.00,VWS V14.01,2013-04-12 08:27:00,
2013-04-12 04:32:00,69.5,62.7,29.71,NE,52,0.0,9.9,79,0.00,,BKN200,0.00,VWS V14.01,2013-04-12 08:32:00,
2013-04-12 04:37:00,69.5,62.7,29.71,North,353,0.0,12.7,79,0.00,,BKN200,0.00,VWS V14.01,2013-04-12 08:37:00,
2013-04-12 04:42:00,69.7,62.9,29.71,NNE,22,0.0,12.7,79,0.00,,BKN200,0.00,VWS V14.01,2013-04-12 08:42:00,
2013-04-12 04:47:00,69.7,62.9,29.71,North,357,0.0,11.3,79,0.00,,BKN200,0.00,VWS V14.01,2013-04-12 08:47:00,
2013-04-12 04:52:00,69.7,62.9,29.71,ENE,59,0.0,0.0,79,0.00,,BKN200,0.00,VWS V14.01,2013-04-12 08:52:00,
2013-04-12 04:57:00,69.5,62.7,29.71,WNW,286,6.7,7.0,79,0.00,,BKN200,0.00,VWS V14.01,2013-04-12 08:57:00,
2013-04-12 05:02:00,69.5,63.8,29.71,WSW,254,8.1,12.7,82,0.00,,OVC200,0.00,VWS V14.01,2013-04-12 09:02:00,
2013-04-12 05:07:00,69.3,63.6,29.71,NNE,22,0.0,0.0,82,0.00,,OVC200,0.00,VWS V14.01,2013-04-12 09:07:00,
2013-04-12 05:12:00,69.2,64.1,29.74,NNE,15,0.0,0.0,84,0.04,,OVC200,0.04,VWS V14.01,2013-04-12 09:12:00,
2013-04-12 05:17:00,68.8,64.1,29.74,NW,323,0.0,0.0,85,0.04,,OVC200,0.04,VWS V14.01,2013-04-12 09:17:00,
2013-04-12 05:22:00,68.6,65.2,29.74,NW,319,0.0,0.0,89,0.04,,OVC200,0.04,VWS V14.01,2013-04-12 09:22:00,
2013-04-12 05:27:00,68.3,65.2,29.71,North,1,0.0,0.0,90,0.04,,OVC200,0.04,VWS V14.01,2013-04-12 09:27:00,
2013-04-12 05:32:00,68.1,66.3,29.71,ENE,75,0.0,0.0,94,0.04,,RA,0.04,VWS V14.01,2013-04-12 09:32:00,
2013-04-12 05:37:00,67.7,66.8,29.71,NNW,328,0.0,0.0,97,0.04,,RA,0.04,VWS V14.01,2013-04-12 09:37:00,
2013-04-12 05:43:00,67.5,67.2,29.71,West,268,0.0,0.0,99,0.04,,RA,0.04,VWS V14.01,2013-04-12 09:43:00,
2013-04-12 05:48:00,67.5,67.5,29.71,NNW,341,0.0,0.0,100,0.04,,RA,0.04,VWS V14.01,2013-04-12 09:48:00,
2013-04-12 05:53:00,67.4,67.4,29.71,WNW,300,0.0,0.0,100,0.04,,RA,0.04,VWS V14.01,2013-04-12 09:53:00,
2013-04-12 05:58:00,67.4,67.4,29.71,East,79,0.0,9.9,100,0.08,,RA,0.08,VWS V14.01,2013-04-12 09:58:00,
2013-04-12 06:03:00,67.4,67.4,29.71,NW,310,0.0,8.5,100,0.08,,-RA,0.08,VWS V14.01,2013-04-12 10:03:00,
2013-04-12 06:08:00,67.2,67.2,29.71,North,11,0.0,11.3,100,0.08,,-RA,0.08,VWS V14.01,2013-04-12 10:08:00,
2013-04-12 06:13:00,67.2,67.2,29.71,ENE,62,0.0,0.0,100,0.04,,-RA,0.08,VWS V14.01,2013-04-12 10:13:00,
2013-04-12 06:18:00,67.0,67.0,29.71,NW,324,0.0,0.0,100,0.04,,RA,0.08,VWS V14.01,2013-04-12 10:18:00,
2013-04-12 06:23:00,67.0,67.0,29.71,South,190,8.1,9.9,100,0.04,,RA,0.08,VWS V14.01,2013-04-12 10:23:00,
2013-04-12 06:28:00,67.0,67.0,29.71,WNW,303,0.0,8.5,100,0.04,,RA,0.08,VWS V14.01,2013-04-12 10:28:00,
2013-04-12 06:33:00,67.0,67.0,29.71,NW,304,0.0,11.3,100,0.04,,RA,0.08,VWS V14.01,2013-04-12 10:33:00,
2013-04-12 06:39:00,67.0,67.0,29.71,SSE,166,0.0,0.0,100,0.04,,RA,0.08,VWS V14.01,2013-04-12 10:39:00,
2013-04-12 06:44:00,66.8,66.8,29.71,South,173,0.0,7.0,100,0.08,,RA,0.12,VWS V14.01,2013-04-12 10:44:00,
2013-04-12 06:49:00,66.5,66.5,29.71,NNW,346,0.0,11.3,100,0.31,,RA,0.35,VWS V14.01,2013-04-12 10:49:00,
2013-04-12 06:54:00,66.3,66.3,29.71,South,176,0.0,9.9,100,0.39,,RA,0.43,VWS V14.01,2013-04-12 10:54:00,
2013-04-12 06:59:00,66.1,66.1,29.71,SSE,161,0.0,0.0,100,0.35,,RA,0.43,VWS V14.01,2013-04-12 10:59:00,
2013-04-12 07:04:00,65.9,65.9,29.71,SSE,163,0.0,0.0,100,0.39,, +RA,0.47,VWS V14.01,2013-04-12 11:04:00,
2013-04-12 07:09:00,65.9,65.9,29.74,SW,235,0.0,8.5,100,0.39,, +RA,0.47,VWS V14.01,2013-04-12 11:09:00,
2013-04-12 07:14:00,65.7,65.7,29.74,SSE,158,0.0,0.0,100,0.47,, +RA,0.55,VWS V14.01,2013-04-12 11:14:00,
2013-04-12 07:19:00,65.4,65.4,29.74,SSW,199,6.7,8.5,100,0.47,, +RA,0.55,VWS V14.01,2013-04-12 11:19:00,
2013-04-12 07:24:00,65.2,65.2,29.74,NW,318,0.0,7.0,100,0.47,, +RA,0.55,VWS V14.01,2013-04-12 11:24:00,
2013-04-12 07:29:00,65.2,65.2,29.74,NNE,18,0.0,9.9,100,0.47,, +RA,0.55,VWS V14.01,2013-04-12 11:29:00,
2013-04-12 07:34:00,65.2,65.2,29.74,NNE,13,0.0,7.0,100,0.47,,RA,0.55,VWS V14.01,2013-04-12 11:34:00,
2013-04-12 07:39:00,65.4,65.4,29.71,WNW,288,0.0,9.9,100,0.47,,RA,0.55,VWS V14.01,2013-04-12 11:39:00,
2013-04-12 07:44:00,65.6,65.6,29.71,SSW,209,0.0,0.0,100,0.47,,RA,0.55,VWS V14.01,2013-04-12 11:44:00,
2013-04-12 07:49:00,65.6,65.6,29.71,NNE,33,0.0,0.0,100,0.24,,RA,0.55,VWS V14.01,2013-04-12 11:49:00,
2013-04-12 07:54:00,65.7,65.7,29.71,NNE,18,0.0,0.0,100,0.16,,RA,0.55,VWS V14.01,2013-04-12 11:54:00,
2013-04-12 07:59:00,65.7,65.7,29.71,WNW,284,0.0,0.0,100,0.12,,RA,0.55,VWS V14.01,2013-04-12 11:59:00,
2013-04-12 08:04:00,65.7,65.7,29.71,NNE,24,0.0,8.5,100,0.12,,OVC200,0.55,VWS V14.01,2013-04-12 12:04:00,
2013-04-12 08:09:00,65.7,65.7,29.71,North,353,10.7,11.3,100,0.08,,OVC200,0.55,VWS V14.01,2013-04-12 12:09:00,
2013-04-12 08:14:00,65.7,65.7,29.71,North,7,0.0,7.0,100,0.08,,OVC200,0.55,VWS V14.01,2013-04-12 12:14:00,
2013-04-12 08:19:00,65.7,65.7,29.71,North,0,0.0,0.0,100,0.00,,OVC200,0.55,VWS V14.01,2013-04-12 12:19:00,
2013-04-12 08:25:00,65.9,65.9,29.71,NNE,13,0.0,0.0,100,0.00,,OVC200,0.55,VWS V14.01,2013-04-12 12:25:00,
2013-04-12 08:30:00,65.9,65.9,29.71,WNW,283,0.0,16.9,100,0.00,,OVC200,0.55,VWS V14.01,2013-04-12 12:30:00,
2013-04-12 08:35:00,66.1,66.1,29.71,NE,53,0.0,9.9,100,0.00,,OVC200,0.55,VWS V14.01,2013-04-12 12:35:00,
2013-04-12 08:40:00,66.3,66.3,29.71,North,357,0.0,0.0,100,0.00,,OVC200,0.55,VWS V14.01,2013-04-12 12:40:00,
2013-04-12 08:45:00,66.3,66.3,29.71,WNW,294,0.0,0.0,100,0.00,,OVC200,0.55,VWS V14.01,2013-04-12 12:45:00,
2013-04-12 08:50:00,66.5,66.5,29.71,ENE,63,0.0,7.0,100,0.00,,OVC200,0.55,VWS V14.01,2013-04-12 12:50:00,
2013-04-12 08:55:00,66.5,66.5,29.71,North,353,0.0,11.3,100,0.00,,OVC200,0.55,VWS V14.01,2013-04-12 12:55:00,
2013-04-12 09:00:00,66.5,66.5,29.71,North,11,0.0,0.0,100,0.00,,OVC200,0.55,VWS V14.01,2013-04-12 13:00:00,
2013-04-12 09:05:00,66.5,66.5,29.71,West,281,6.7,7.0,100,0.00,,BKN200,0.55,VWS V14.01,2013-04-12 13:05:00,
2013-04-12 09:10:00,66.5,66.5,29.71,North,8,8.1,8.5,100,0.00,,BKN200,0.55,VWS V14.01,2013-04-12 13:10:00,
2013-04-12 09:15:00,66.5,66.5,29.71,South,186,0.0,0.0,100,0.00,,BKN200,0.55,VWS V14.01,2013-04-12 13:15:00,
2013-04-12 09:20:00,66.6,66.6,29.71,NNE,21,0.0,8.5,100,0.00,,BKN200,0.55,VWS V14.01,2013-04-12 13:20:00,
2013-04-12 09:25:00,66.8,66.8,29.71,SSE,159,0.0,0.0,100,0.00,,BKN200,0.55,VWS V14.01,2013-04-12 13:25:00,
2013-04-12 09:30:00,66.8,66.8,29.71,NW,307,0.0,7.0,100,0.00,,BKN200,0.55,VWS V14.01,2013-04-12 13:30:00,
2013-04-12 09:36:00,67.2,67.2,29.71,WSW,241,0.0,0.0,100,0.00,,BKN200,0.55,VWS V14.01,2013-04-12 13:36:00,
2013-04-12 09:41:00,67.2,67.2,29.71,NW,304,0.0,0.0,100,0.00,,BKN200,0.55,VWS V14.01,2013-04-12 13:41:00,
2013-04-12 09:46:00,67.4,67.4,29.71,SSE,161,0.0,0.0,100,0.00,,BKN200,0.55,VWS V14.01,2013-04-12 13:46:00,
2013-04-12 09:51:00,67.5,67.5,29.71,West,278,0.0,0.0,100,0.00,,BKN200,0.55,VWS V14.01,2013-04-12 13:51:00,
2013-04-12 09:56:00,67.7,67.7,29.71,NNE,17,0.0,7.0,100,0.00,,BKN200,0.55,VWS V14.01,2013-04-12 13:56:00,
2013-04-12 10:01:00,67.9,67.9,29.71,NW,322,0.0,0.0,100,0.00,,OVC030,0.55,VWS V14.01,2013-04-12 14:01:00,
2013-04-12 10:06:00,68.3,68.3,29.71,NNW,344,8.1,8.5,100,0.00,,OVC030,0.55,VWS V14.01,2013-04-12 14:06:00,
2013-04-12 10:12:00,68.4,68.4,29.71,SE,141,0.0,11.3,100,0.00,,OVC030,0.55,VWS V14.01,2013-04-12 14:12:00,
2013-04-12 10:17:00,68.6,68.6,29.71,WNW,303,0.0,9.9,100,0.00,,OVC030,0.55,VWS V14.01,2013-04-12 14:17:00,
2013-04-12 10:22:00,68.8,68.8,29.71,NNE,32,9.4,9.9,100,0.00,,OVC030,0.55,VWS V14.01,2013-04-12 14:22:00,
2013-04-12 10:27:00,68.8,68.8,29.71,WSW,250,0.0,7.0,100,0.00,,OVC030,0.55,VWS V14.01,2013-04-12 14:27:00,
2013-04-12 10:32:00,69.0,69.0,29.71,NNE,28,0.0,0.0,100,0.00,,OVC030,0.55,VWS V14.01,2013-04-12 14:32:00,
2013-04-12 10:37:00,69.2,69.2,29.71,WNW,282,0.0,0.0,100,0.00,,OVC030,0.55,VWS V14.01,2013-04-12 14:37:00,
2013-04-12 10:42:00,69.5,69.5,29.71,WSW,244,0.0,0.0,100,0.00,,OVC030,0.55,VWS V14.01,2013-04-12 14:42:00,
2013-04-12 10:47:00,69.9,69.9,29.71,SSW,204,0.0,8.5,100,0.00,,OVC030,0.55,VWS V14.01,2013-04-12 14:47:00,
2013-04-12 10:52:00,70.2,70.2,29.71,South,171,0.0,7.0,100,0.00,,OVC030,0.55,VWS V14.01,2013-04-12 14:52:00,
2013-04-12 10:57:00,70.4,70.4,29.71,SSW,195,6.7,11.3,100,0.00,,OVC030,0.55,VWS V14.01,2013-04-12 14:57:00,
2013-04-12 11:02:00,70.6,70.6,29.71,WSW,249,0.0,8.5,100,0.00,,BKN045,0.55,VWS V14.01,2013-04-12 15:02:00,
2013-04-12 11:07:00,71.1,71.1,29.71,South,185,0.0,16.9,100,0.00,,BKN045,0.55,VWS V14.01,2013-04-12 15:07:00,
2013-04-12 11:12:00,71.5,70.9,29.71,West,272,0.0,8.5,98,0.00,,BKN045,0.55,VWS V14.01,2013-04-12 15:12:00,
2013-04-12 11:18:00,72.0,69.3,29.71,SSW,192,0.0,12.7,91,0.00,,BKN045,0.55,VWS V14.01,2013-04-12 15:18:00,
2013-04-12 11:23:00,72.6,67.1,29.71,South,191,9.4,12.7,83,0.00,,BKN045,0.55,VWS V14.01,2013-04-12 15:23:00,
2013-04-12 11:28:00,73.3,67.1,29.71,NE,54,0.0,7.0,81,0.00,,BKN045,0.55,VWS V14.01,2013-04-12 15:28:00,
2013-04-12 11:33:00,73.7,66.8,29.71,NNE,19,0.0,16.9,79,0.00,,BKN045,0.55,VWS V14.01,2013-04-12 15:33:00,
2013-04-12 11:38:00,73.7,66.8,29.71,WNW,293,0.0,0.0,79,0.00,,BKN045,0.55,VWS V14.01,2013-04-12 15:38:00,
2013-04-12 11:43:00,73.3,66.4,29.71,North,0,0.0,12.7,79,0.00,,BKN045,0.55,VWS V14.01,2013-04-12 15:43:00,
2013-04-12 11:48:00,73.1,65.9,29.71,SSW,195,9.4,12.7,78,0.00,,BKN045,0.55,VWS V14.01,2013-04-12 15:48:00,
2013-04-12 11:53:00,73.3,66.8,29.68,South,180,6.7,16.9,80,0.00,,BKN045,0.55,VWS V14.01,2013-04-12 15:53:00,
2013-04-12 11:58:00,73.5,66.6,29.68,WNW,289,8.1,9.9,79,0.00,,BKN045,0.55,VWS V14.01,2013-04-12 15:58:00,
2013-04-12 12:03:00,73.8,64.7,29.68,SSE,159,8.1,15.5,73,0.00,,BKN180,0.55,VWS V14.01,2013-04-12 16:03:00,
2013-04-12 12:08:00,74.2,65.0,29.71,SE,145,8.1,19.7,73,0.00,,BKN180,0.55,VWS V14.01,2013-04-12 16:08:00,
2013-04-12 12:13:00,73.5,66.2,29.71,South,175,0.0,8.5,78,0.00,,BKN180,0.55,VWS V14.01,2013-04-12 16:13:00,
2013-04-12 12:18:00,72.4,65.5,29.71,South,191,9.4,12.7,79,0.00,,BKN180,0.55,VWS V14.01,2013-04-12 16:18:00,
2013-04-12 12:23:00,72.0,65.9,29.68,South,177,9.4,11.3,81,0.00,,BKN180,0.55,VWS V14.01,2013-04-12 16:23:00,
2013-04-12 12:28:00,71.9,66.1,29.68,South,177,9.4,9.9,82,0.00,,BKN180,0.55,VWS V14.01,2013-04-12 16:28:00,
2013-04-12 12:34:00,72.0,66.2,29.68,South,177,9.4,9.9,82,0.00,,BKN180,0.55,VWS V14.01,2013-04-12 16:34:00,
2013-04-12 12:39:00,72.2,66.4,29.68,South,177,9.4,9.9,82,0.00,,BKN180,0.55,VWS V14.01,2013-04-12 16:39:00,
2013-04-12 12:44:00,72.4,65.9,29.68,South,177,9.4,9.9,80,0.00,,BKN180,0.55,VWS V14.01,2013-04-12 16:44:00,
2013-04-12 12:49:00,72.6,66.1,29.68,South,177,9.4,9.9,80,0.00,,BKN180,0.55,VWS V14.01,2013-04-12 16:49:00,
2013-04-12 12:54:00,72.6,66.1,29.68,South,186,0.0,9.9,80,0.00,,BKN180,0.55,VWS V14.01,2013-04-12 16:54:00,
2013-04-12 12:59:00,72.4,66.2,29.68,South,186,0.0,0.0,81,0.00,,BKN180,0.55,VWS V14.01,2013-04-12 16:59:00,
2013-04-12 13:04:00,72.0,66.6,29.68,WSW,244,0.0,0.0,83,0.00,,BKN080,0.55,VWS V14.01,2013-04-12 17:04:00,
2013-04-12 13:09:00,71.9,66.8,29.68,South,175,6.7,7.0,84,0.00,,BKN080,0.55,VWS V14.01,2013-04-12 17:09:00,
2013-04-12 13:14:00,71.9,67.1,29.68,South,175,6.7,7.0,85,0.00,,BKN080,0.55,VWS V14.01,2013-04-12 17:14:00,
2013-04-12 13:19:00,72.0,68.0,29.68,South,175,6.7,7.0,87,0.00,,BKN080,0.55,VWS V14.01,2013-04-12 17:19:00,
2013-04-12 13:24:00,72.0,68.0,29.68,South,175,6.7,7.0,87,0.00,,BKN080,0.55,VWS V14.01,2013-04-12 17:24:00,
2013-04-12 13:29:00,72.0,67.3,29.68,South,175,6.7,7.0,85,0.00,,BKN080,0.55,VWS V14.01,2013-04-12 17:29:00,
2013-04-12 13:34:00,72.2,67.8,29.68,South,175,6.7,7.0,86,0.00,,BKN080,0.55,VWS V14.01,2013-04-12 17:34:00,
2013-04-12 13:39:00,72.4,67.6,29.68,South,175,6.7,7.0,85,0.00,,BKN080,0.55,VWS V14.01,2013-04-12 17:39:00,
2013-04-12 13:44:00,72.6,67.5,29.68,NW,319,0.0,7.0,84,0.00,,BKN080,0.55,VWS V14.01,2013-04-12 17:44:00,
2013-04-12 13:49:00,72.9,67.5,29.68,SSW,198,0.0,0.0,83,0.00,,BKN080,0.55,VWS V14.01,2013-04-12 17:49:00,
2013-04-12 13:55:00,73.1,66.9,29.68,SSW,198,0.0,0.0,81,0.00,,BKN080,0.55,VWS V14.01,2013-04-12 17:55:00,
2013-04-12 14:00:00,73.8,67.3,29.68,SSW,198,0.0,0.0,80,0.00,,BKN080,0.55,VWS V14.01,2013-04-12 18:00:00,
2013-04-12 14:05:00,74.2,67.3,29.68,SSW,198,0.0,0.0,79,0.00,,BKN200,0.55,VWS V14.01,2013-04-12 18:05:00,
2013-04-12 14:10:00,74.6,67.2,29.65,SSW,198,0.0,0.0,78,0.00,,BKN200,0.55,VWS V14.01,2013-04-12 18:10:00,
2013-04-12 14:16:00,74.7,66.7,29.65,SSW,198,0.0,0.0,76,0.00,,BKN200,0.55,VWS V14.01,2013-04-12 18:16:00,
2013-04-12 14:21:00,74.9,66.8,29.65,North,2,0.0,0.0,76,0.00,,BKN200,0.55,VWS V14.01,2013-04-12 18:21:00,
2013-04-12 14:27:00,75.1,67.0,29.65,North,2,0.0,0.0,76,0.00,,BKN200,0.55,VWS V14.01,2013-04-12 18:27:00,
2013-04-12 15:26:00,77.1,64.4,29.65,SSE,155,8.1,8.5,65,0.00,,BKN150,0.55,VWS V14.01,2013-04-12 19:26:00,
2013-04-12 15:27:00,77.1,64.4,29.65,SSE,155,8.1,8.5,65,0.00,,BKN150,0.55,VWS V14.01,2013-04-12 19:27:00,
2013-04-12 15:32:00,76.7,64.1,29.65,SSE,155,8.1,8.5,65,0.00,,BKN150,0.55,VWS V14.01,2013-04-12 19:32:00,
2013-04-12 15:37:00,76.7,64.1,29.65,SSE,155,8.1,8.5,65,0.00,,BKN150,0.55,VWS V14.01,2013-04-12 19:37:00,
2013-04-12 15:42:00,76.7,64.5,29.62,SSE,155,8.1,8.5,66,0.00,,BKN150,0.55,VWS V14.01,2013-04-12 19:42:00,
2013-04-12 15:47:00,76.7,64.5,29.62,SSE,155,8.1,8.5,66,0.00,,BKN150,0.55,VWS V14.01,2013-04-12 19:47:00,
2013-04-12 15:53:00,76.9,65.1,29.62,SSE,155,8.1,8.5,67,0.00,,BKN150,0.55,VWS V14.01,2013-04-12 19:53:00,
2013-04-12 15:58:00,77.3,65.5,29.62,SSE,155,8.1,8.5,67,0.00,,BKN150,0.55,VWS V14.01,2013-04-12 19:58:00,
2013-04-12 16:03:00,77.8,65.1,29.62,SSE,163,0.0,8.5,65,0.00,,BKN150,0.55,VWS V14.01,2013-04-12 20:03:00,
2013-04-12 16:08:00,78.0,63.5,29.62,SSE,161,6.7,11.3,61,0.00,,BKN150,0.55,VWS V14.01,2013-04-12 20:08:00,
2013-04-12 16:13:00,78.5,63.0,29.62,NE,43,14.8,15.5,59,0.00,,BKN150,0.55,VWS V14.01,2013-04-12 20:13:00,
2013-04-12 16:18:00,79.2,63.7,29.62,NE,49,0.0,16.9,59,0.00,,BKN150,0.55,VWS V14.01,2013-04-12 20:18:00,
2013-04-12 16:23:00,79.4,62.4,29.62,SSE,163,16.1,16.9,56,0.00,,BKN150,0.55,VWS V14.01,2013-04-12 20:23:00,
2013-04-12 16:28:00,79.6,63.0,29.62,WSW,250,12.1,14.1,57,0.00,,BKN150,0.55,VWS V14.01,2013-04-12 20:28:00,
2013-04-12 16:33:00,79.4,62.4,29.62,SSW,201,0.0,11.3,56,0.00,,BKN150,0.55,VWS V14.01,2013-04-12 20:33:00,
2013-04-12 16:38:00,79.4,62.4,29.59,South,187,0.0,8.5,56,0.00,,BKN150,0.55,VWS V14.01,2013-04-12 20:38:00,
2013-04-12 16:43:00,79.8,62.2,29.59,SSE,156,8.1,9.9,55,0.00,,BKN150,0.55,VWS V14.01,2013-04-12 20:43:00,
2013-04-12 16:48:00,80.0,62.4,29.59,West,272,0.0,14.1,55,0.00,,BKN150,0.55,VWS V14.01,2013-04-12 20:48:00,
2013-04-12 16:53:00,80.3,62.2,29.59,SE,136,6.7,15.5,54,0.00,,BKN150,0.55,VWS V14.01,2013-04-12 20:53:00,
2013-04-12 16:58:00,80.5,62.9,29.59,NNW,341,0.0,9.9,55,0.00,,BKN150,0.55,VWS V14.01,2013-04-12 20:58:00,
2013-04-12 17:04:00,80.3,62.2,29.59,WSW,255,10.7,12.7,54,0.00,,BKN120,0.55,VWS V14.01,2013-04-12 21:04:00,
2013-04-12 17:09:00,80.5,62.3,29.62,South,179,0.0,15.5,54,0.00,,BKN120,0.55,VWS V14.01,2013-04-12 21:09:00,
2013-04-12 17:14:00,80.7,62.5,29.62,ENE,75,0.0,12.7,54,0.00,,BKN120,0.55,VWS V14.01,2013-04-12 21:14:00,
2013-04-12 17:19:00,80.5,61.3,29.62,WSW,254,8.1,16.9,52,0.00,,BKN120,0.55,VWS V14.01,2013-04-12 21:19:00,
2013-04-12 17:24:00,80.1,60.9,29.59,NNW,334,8.1,12.7,52,0.00,,BKN120,0.55,VWS V14.01,2013-04-12 21:24:00,
2013-04-12 17:29:00,80.0,60.8,29.59,NNW,329,0.0,11.3,52,0.00,,BKN120,0.55,VWS V14.01,2013-04-12 21:29:00,
2013-04-12 17:34:00,79.8,60.6,29.59,SSE,164,0.0,0.0,52,0.00,,BKN120,0.55,VWS V14.01,2013-04-12 21:34:00,
2013-04-12 17:39:00,79.8,60.6,29.59,SE,124,9.4,9.9,52,0.00,,BKN120,0.55,VWS V14.01,2013-04-12 21:39:00,
2013-04-12 17:44:00,79.6,60.4,29.59,SSE,165,0.0,11.3,52,0.00,,BKN120,0.55,VWS V14.01,2013-04-12 21:44:00,
2013-04-12 17:49:00,79.6,60.4,29.59,SSW,212,12.1,12.7,52,0.00,,BKN120,0.55,VWS V14.01,2013-04-12 21:49:00,
2013-04-12 17:54:00,79.6,60.4,29.59,SSE,163,12.1,12.7,52,0.00,,BKN120,0.55,VWS V14.01,2013-04-12 21:54:00,
2013-04-12 17:59:00,79.4,60.3,29.59,South,174,9.4,9.9,52,0.00,,BKN120,0.55,VWS V14.01,2013-04-12 21:59:00,
2013-04-12 18:05:00,79.2,60.1,29.59,SSE,156,6.7,12.7,52,0.00,,SCT200,0.55,VWS V14.01,2013-04-12 22:05:00,
2013-04-12 18:15:00,79.2,60.1,29.59,SSW,192,8.1,8.5,52,0.00,,SCT200,0.55,VWS V14.01,2013-04-12 22:15:00,
2013-04-12 18:20:00,79.1,58.8,29.59,SSE,168,12.1,12.7,50,0.10,,SCT200,0.65,VWS V14.01,2013-04-12 22:20:00,
2013-04-12 18:25:00,78.7,58.5,29.59,SW,219,6.7,15.5,50,0.10,,SCT200,0.65,VWS V14.01,2013-04-12 22:25:00,
2013-04-12 18:30:00,78.7,58.5,29.59,SW,222,0.0,18.3,50,0.10,,SCT200,0.65,VWS V14.01,2013-04-12 22:30:00,
2013-04-12 18:35:00,78.5,58.3,29.59,SSE,163,0.0,9.9,50,0.10,,SCT200,0.65,VWS V14.01,2013-04-12 22:35:00,
2013-04-12 18:40:00,78.2,59.1,29.62,SW,234,8.1,8.5,52,0.10,,SCT200,0.65,VWS V14.01,2013-04-12 22:40:00,
2013-04-12 18:45:00,78.0,59.0,29.62,SE,131,0.0,0.0,52,0.10,,SCT200,0.65,VWS V14.01,2013-04-12 22:45:00,
2013-04-12 18:50:00,77.6,59.2,29.62,SSE,159,0.0,0.0,53,0.10,,SCT200,0.65,VWS V14.01,2013-04-12 22:50:00,
2013-04-12 18:55:00,77.3,58.8,29.62,West,271,0.0,0.0,53,0.10,,SCT200,0.65,VWS V14.01,2013-04-12 22:55:00,
2013-04-12 19:00:00,76.9,58.5,29.62,SSW,202,0.0,9.9,53,0.10,,FEW200,0.65,VWS V14.01,2013-04-12 23:00:00,
2013-04-12 19:06:00,76.7,58.3,29.62,WNW,303,0.0,0.0,53,0.00,,FEW200,0.65,VWS V14.01,2013-04-12 23:06:00,
2013-04-12 19:11:00,76.5,58.2,29.62,WNW,289,6.7,9.9,53,0.00,,FEW200,0.65,VWS V14.01,2013-04-12 23:11:00,
2013-04-12 19:16:00,76.2,58.8,29.62,SW,220,0.0,0.0,55,0.00,,FEW200,0.65,VWS V14.01,2013-04-12 23:16:00,
2013-04-12 19:21:00,75.8,58.5,29.62,South,183,0.0,0.0,55,0.00,,FEW200,0.65,VWS V14.01,2013-04-12 23:21:00,
2013-04-12 19:27:00,75.5,58.2,29.62,NW,325,0.0,0.0,55,0.00,,FEW200,0.65,VWS V14.01,2013-04-12 23:27:00,
2013-04-12 19:32:00,75.3,58.0,29.62,WNW,289,0.0,8.5,55,0.00,,FEW200,0.65,VWS V14.01,2013-04-12 23:32:00,
2013-04-12 19:37:00,74.9,57.7,29.62,South,191,0.0,0.0,55,0.00,,FEW200,0.65,VWS V14.01,2013-04-12 23:37:00,
2013-04-12 19:42:00,74.6,57.3,29.62,NW,321,0.0,0.0,55,0.00,,FEW200,0.65,VWS V14.01,2013-04-12 23:42:00,
2013-04-12 19:47:00,74.2,57.5,29.62,South,181,0.0,0.0,56,0.00,,FEW200,0.65,VWS V14.01,2013-04-12 23:47:00,
2013-04-12 19:52:00,73.8,57.2,29.62,SSW,205,0.0,0.0,56,0.00,,FEW200,0.65,VWS V14.01,2013-04-12 23:52:00,
2013-04-12 19:57:00,73.7,57.0,29.62,WSW,254,0.0,0.0,56,0.00,,FEW200,0.65,VWS V14.01,2013-04-12 23:57:00,
2013-04-12 20:02:00,73.3,56.7,29.62,WNW,288,0.0,8.5,56,0.00,,SCT250,0.65,VWS V14.01,2013-04-13 00:02:00,
2013-04-12 20:07:00,73.1,56.5,29.65,WNW,298,0.0,0.0,56,0.00,,SCT250,0.65,VWS V14.01,2013-04-13 00:07:00,
2013-04-12 20:12:00,72.8,56.2,29.65,SSW,194,0.0,0.0,56,0.00,,SCT250,0.65,VWS V14.01,2013-04-13 00:12:00,
2013-04-12 20:17:00,72.6,56.0,29.65,South,174,0.0,0.0,56,0.00,,SCT250,0.65,VWS V14.01,2013-04-13 00:17:00,
2013-04-12 20:22:00,72.4,55.8,29.65,West,259,0.0,0.0,56,0.00,,SCT250,0.65,VWS V14.01,2013-04-13 00:22:00,
2013-04-12 20:28:00,72.2,55.7,29.65,West,274,0.0,8.5,56,0.00,,SCT250,0.65,VWS V14.01,2013-04-13 00:28:00,
2013-04-12 20:33:00,72.0,55.5,29.65,SSW,199,0.0,0.0,56,0.00,,SCT250,0.65,VWS V14.01,2013-04-13 00:33:00,
2013-04-12 20:38:00,72.0,55.5,29.65,SSW,208,0.0,0.0,56,0.00,,SCT250,0.65,VWS V14.01,2013-04-13 00:38:00,
2013-04-12 20:43:00,71.7,55.2,29.65,WSW,258,0.0,0.0,56,0.00,,SCT250,0.65,VWS V14.01,2013-04-13 00:43:00,
2013-04-12 20:48:00,71.7,55.2,29.65,WNW,294,0.0,0.0,56,0.00,,SCT250,0.65,VWS V14.01,2013-04-13 00:48:00,
2013-04-12 20:53:00,71.3,54.8,29.65,ESE,119,0.0,0.0,56,0.00,,SCT250,0.65,VWS V14.01,2013-04-13 00:53:00,
2013-04-12 20:58:00,71.1,54.7,29.65,ESE,119,0.0,0.0,56,0.00,,SCT250,0.65,VWS V14.01,2013-04-13 00:58:00,
2013-04-12 21:03:00,71.0,54.5,29.65,ESE,119,0.0,0.0,56,0.00,,SCT250,0.65,VWS V14.01,2013-04-13 01:03:00,
2013-04-12 21:08:00,70.8,54.3,29.68,ESE,119,0.0,0.0,56,0.00,,SCT250,0.65,VWS V14.01,2013-04-13 01:08:00,
2013-04-12 21:13:00,70.8,54.3,29.68,ESE,119,0.0,0.0,56,0.00,,SCT250,0.65,VWS V14.01,2013-04-13 01:13:00,
2013-04-12 21:18:00,70.8,54.3,29.68,ESE,119,0.0,0.0,56,0.00,,SCT250,0.65,VWS V14.01,2013-04-13 01:18:00,
2013-04-12 21:23:00,70.8,54.3,29.68,ESE,119,0.0,0.0,56,0.00,,SCT250,0.65,VWS V14.01,2013-04-13 01:23:00,
2013-04-12 21:28:00,70.6,54.2,29.68,ESE,119,0.0,0.0,56,0.00,,SCT250,0.65,VWS V14.01,2013-04-13 01:28:00,
2013-04-12 21:33:00,70.4,54.5,29.68,ESE,119,0.0,0.0,57,0.00,,SCT250,0.65,VWS V14.01,2013-04-13 01:33:00,
2013-04-12 21:38:00,70.1,54.1,29.68,ESE,119,0.0,0.0,57,0.00,,SCT250,0.65,VWS V14.01,2013-04-13 01:38:00,
2013-04-12 21:43:00,70.1,54.1,29.68,ESE,119,0.0,0.0,57,0.00,,SCT250,0.65,VWS V14.01,2013-04-13 01:43:00,
2013-04-12 21:48:00,69.7,53.8,29.68,ESE,119,0.0,0.0,57,0.00,,SCT250,0.65,VWS V14.01,2013-04-13 01:48:00,
2013-04-12 21:53:00,69.3,53.5,29.68,ESE,119,0.0,0.0,57,0.00,,SCT250,0.65,VWS V14.01,2013-04-13 01:53:00,
2013-04-12 21:58:00,69.0,53.1,29.68,ESE,119,0.0,0.0,57,0.00,,SCT250,0.65,VWS V14.01,2013-04-13 01:58:00,
2013-04-12 22:03:00,68.6,52.8,29.68,ESE,119,0.0,0.0,57,0.00,,FEW250,0.65,VWS V14.01,2013-04-13 02:03:00,
2013-04-12 22:09:00,68.3,52.9,29.68,ESE,119,0.0,0.0,58,0.00,,FEW250,0.65,VWS V14.01,2013-04-13 02:09:00,
2013-04-12 22:14:00,67.9,52.6,29.68,ESE,119,0.0,0.0,58,0.00,,FEW250,0.65,VWS V14.01,2013-04-13 02:14:00,
2013-04-12 22:19:00,67.4,52.1,29.68,ESE,119,0.0,0.0,58,0.00,,FEW250,0.65,VWS V14.01,2013-04-13 02:19:00,
2013-04-12 22:24:00,67.2,51.9,29.71,ESE,119,0.0,0.0,58,0.00,,FEW250,0.65,VWS V14.01,2013-04-13 02:24:00,
2013-04-12 22:29:00,66.8,52.0,29.71,ESE,119,0.0,0.0,59,0.00,,FEW250,0.65,VWS V14.01,2013-04-13 02:29:00,
2013-04-12 22:34:00,66.5,51.7,29.71,ESE,119,0.0,0.0,59,0.00,,FEW250,0.65,VWS V14.01,2013-04-13 02:34:00,
2013-04-12 22:39:00,66.3,51.5,29.71,ESE,119,0.0,0.0,59,0.00,,FEW250,0.65,VWS V14.01,2013-04-13 02:39:00,
2013-04-12 22:44:00,66.1,51.4,29.71,ESE,119,0.0,0.0,59,0.00,,FEW250,0.65,VWS V14.01,2013-04-13 02:44:00,
2013-04-12 22:49:00,66.1,50.9,29.71,ESE,119,0.0,0.0,58,0.00,,FEW250,0.65,VWS V14.01,2013-04-13 02:49:00,
2013-04-12 22:54:00,66.5,51.2,29.71,ESE,119,0.0,0.0,58,0.00,,FEW250,0.65,VWS V14.01,2013-04-13 02:54:00,
2013-04-12 22:59:00,66.5,51.2,29.71,ESE,119,0.0,0.0,58,0.00,,FEW250,0.65,VWS V14.01,2013-04-13 02:59:00,
2013-04-12 23:04:00,66.5,51.2,29.71,SSE,159,0.0,0.0,58,0.00,,FEW250,0.65,VWS V14.01,2013-04-13 03:04:00,
2013-04-12 23:09:00,66.1,50.9,29.71,SSE,164,0.0,0.0,58,0.00,,FEW250,0.65,VWS V14.01,2013-04-13 03:09:00,
2013-04-12 23:14:00,65.9,50.7,29.71,SSE,164,0.0,0.0,58,0.00,,FEW250,0.65,VWS V14.01,2013-04-13 03:14:00,
2013-04-12 23:19:00,65.7,50.1,29.71,SSE,164,0.0,0.0,57,0.00,,FEW250,0.65,VWS V14.01,2013-04-13 03:19:00,
2013-04-12 23:25:00,65.9,49.3,29.74,SSE,164,0.0,0.0,55,0.00,,FEW250,0.65,VWS V14.01,2013-04-13 03:25:00,
2013-04-12 23:30:00,65.9,47.8,29.74,SSE,157,0.0,0.0,52,0.00,,FEW250,0.65,VWS V14.01,2013-04-13 03:30:00,
2013-04-12 23:35:00,66.1,48.0,29.74,SSE,160,0.0,0.0,52,0.00,,FEW250,0.65,VWS V14.01,2013-04-13 03:35:00,
2013-04-12 23:40:00,66.1,48.0,29.74,SSE,160,0.0,0.0,52,0.00,,FEW250,0.65,VWS V14.01,2013-04-13 03:40:00,
2013-04-12 23:45:00,65.9,47.8,29.74,SSE,160,0.0,0.0,52,0.00,,FEW250,0.65,VWS V14.01,2013-04-13 03:45:00,
2013-04-12 23:50:00,65.9,47.8,29.74,SE,144,0.0,0.0,52,0.00,,FEW250,0.65,VWS V14.01,2013-04-13 03:50:00,
2013-04-12 23:55:00,65.9,47.8,29.74,SSE,150,0.0,0.0,52,0.00,,FEW250,0.65,VWS V14.01,2013-04-13 03:55:00,